Funk Island Bank: Past 24 Hour Conditions

 

Port aux Basques

02:30 PM NDT 29 July 2014
This table is a summary of hourly weather conditions for the past 24 hours.
Date / Time
(NDT)
Wind(knots) Conditions Visibility(km) Pressure(kPa) Air tempC) Relative humidity(%) Dew pointC)
29 July 2014
14:30 ESE 12 gust 17 Cloudy 10 101.4 19 95 19
13:30 E 10 Cloudy 1 101.4 18 100 18
12:30 ESE 7 Cloudy 0.8 101.4 19 100 19
11:30 ESE 6 Cloudy 0.2 101.4 19 100 19
10:30 ESE 10 Cloudy 0.2 101.3 18 100 18
9:30 ESE 12 Cloudy 0.2 101.3 18 100 18
8:30 ESE 9 Cloudy 0.2 101.3 17 100 17
7:30 ESE 13 gust 20 Light Rain 0.2 101.2 17 99 17
6:30 E 18 Rain 0.2 101.3 17 100 17
5:30 E 17 gust 25 Cloudy 0.2 101.3 17 100 17
4:30 E 21 gust 26 Cloudy 0.8 101.3 17 99 17
3:30 E 19 gust 25 Cloudy 1 101.3 16 99 16
2:30 E 21 gust 28 Cloudy 2 101.4 16 99 16
1:30 E 20 gust 28 Light Rain 4 101.5 16 99 16
0:30 E 22 gust 29 Light Rain 2 101.5 16 99 16
28 July 2014
23:30 ESE 26 gust 36 Light Rain 8 101.5 16 99 16
22:30 E 22 gust 28 Heavy Rain 5 101.6 17 99 17
21:30 E 20 gust 27 Rain 3 101.6 17 100 17
20:30 E 20 gust 27 Cloudy 0.3 101.7 17 99 17
19:30 E 20 gust 25 Cloudy 2 101.7 17 98 17
18:30 E 21 Cloudy 8 101.7 17 96 17
17:30 E 19 gust 24 Cloudy 11 101.7 17 96 17
16:30 E 18 gust 24 Cloudy 11 101.7 17 95 16
15:30 E 15 Cloudy 10 101.7 17 96 16
14:30 ESE 12 Cloudy 13 101.7 18 95 17
 
Map of Atlantic - Newfoundland marine weather areas Southwestern Grand Banks - 44138 Banquereau - 44139 Tail of the Bank - 44140 Nickerson Bank - 44251 Northeast Burgeo Bank - 44255 Blanc-Sablon Airport Cap Whittle Chevery Natashquan Airport Heath Point Miscou Island Grand Étang Ingonish Beach North Mountain St.Paul Island J.A. Douglas McCurdy Sydney Airport Charlottetown Airport East Point North Cape Argentia Bonavista Burgeo Cape Race Corner Brook Daniel's Harbour Englee Ferolle Point La Scie Port aux Basques Rocky Harbour Sagona Island St. Anthony Airport St. John's Int'l Airport St. Lawrence Stephenville Airport Twillingate Winterland Wreckhouse Cartwright Airport Mary's Harbour Grates Cove Pool's Island Marticot Island Long Pond Îles de la Madeleine Airport
Legend: buoyBuoy land stationLand Station